Time;durP1;ratioP1;P1;durP2;ratioP2;P2;SDS_P1;SDS_P2;PMS_P1;PMS_P2;Temp;Humidity;BMP_temperature;BMP_pressure;BME280_temperature;BME280_humidity;BME280_pressure;Samples;Min_cycle;Max_cycle;Signal;HPM_P1;HPM_P2
2022/11/23 00:01:26;;;;;;;49.40;16.92;;;2.50;99.90;;;;;;5037656;28;20041;-74
2022/11/23 00:03:56;;;;;;;41.15;15.85;;;2.50;99.90;;;;;;5036366;28;20468;-74
2022/11/23 00:06:25;;;;;;;50.33;17.13;;;3.40;99.90;;;;;;5037570;28;20050;-74
2022/11/23 00:08:53;;;;;;;54.45;17.55;;;2.50;99.90;;;;;;5037061;28;20049;-74
2022/11/23 00:11:21;;;;;;;;;;;2.50;99.90;;;;;;5036555;28;20064;-74
2022/11/23 00:13:49;;;;;;;55.80;17.27;;;2.50;99.90;;;;;;5036051;28;19925;-74
2022/11/23 00:16:19;;;;;;;60.58;18.10;;;2.50;99.90;;;;;;5035399;28;20468;-74
2022/11/23 00:18:47;;;;;;;63.92;18.77;;;2.60;99.90;;;;;;5036174;28;20049;-73
2022/11/23 00:21:17;;;;;;;65.28;19.35;;;2.60;99.90;;;;;;5035985;28;20048;-74
2022/11/23 00:23:44;;;;;;;59.53;18.85;;;2.50;99.90;;;;;;5034743;28;20480;-74
2022/11/23 00:26:13;;;;;;;73.05;20.08;;;2.70;99.90;;;;;;5036712;28;20053;-74
2022/11/23 00:28:41;;;;;;;51.42;17.45;;;2.70;99.90;;;;;;5019206;28;20057;-74
2022/11/23 00:31:11;;;;;;;63.92;18.38;;;2.70;99.90;;;;;;5035626;28;20052;-74
2022/11/23 00:33:39;;;;;;;63.85;19.17;;;2.70;99.90;;;;;;5036476;28;20053;-74
2022/11/23 00:36:11;;;;;;;67.65;18.23;;;2.70;99.90;;;;;;5032257;28;20068;-74
2022/11/23 00:38:39;;;;;;;70.10;19.77;;;2.70;99.90;;;;;;5016619;28;20049;-74
2022/11/23 00:41:12;;;;;;;67.63;20.50;;;2.70;99.90;;;;;;4999631;28;20050;-74
2022/11/23 00:43:40;;;;;;;82.90;22.15;;;2.80;99.90;;;;;;5015901;28;20365;-74
2022/11/23 00:46:20;;;;;;;81.97;21.88;;;2.80;99.90;;;;;;5016674;28;20061;-74
2022/11/23 00:48:50;;;;;;;90.72;23.75;;;2.80;99.90;;;;;;5016622;28;20054;-73
2022/11/23 00:51:29;;;;;;;85.38;22.65;;;2.90;99.90;;;;;;5015369;28;20388;-73
2022/11/23 00:53:58;;;;;;;74.97;21.60;;;3.00;99.90;;;;;;4999259;28;20037;-74
2022/11/23 00:56:28;;;;;;;73.07;21.73;;;3.00;99.90;;;;;;5015587;28;20042;-74
2022/11/23 00:58:57;;;;;;;78.07;21.23;;;3.00;99.90;;;;;;5016463;28;20050;-74
2022/11/23 01:01:28;;;;;;;70.70;20.48;;;4.30;99.90;;;;;;4999311;28;20045;-74
2022/11/23 01:03:57;;;;;;;66.82;19.65;;;3.00;99.90;;;;;;4998304;28;20042;-73
2022/11/23 01:06:34;;;;;;;66.05;19.90;;;3.00;99.90;;;;;;4999223;28;20052;-74
2022/11/23 01:09:04;;;;;;;60.92;19.50;;;3.00;99.90;;;;;;4981973;28;20397;-74
2022/11/23 01:11:32;;;;;;;64.75;18.65;;;3.00;99.90;;;;;;5016282;28;20057;-74
2022/11/23 01:14:00;;;;;;;68.97;18.63;;;4.40;99.90;;;;;;4998782;28;20045;-73
2022/11/23 01:16:34;;;;;;;60.92;17.77;;;3.10;99.90;;;;;;4997731;28;20046;-74
2022/11/23 01:19:07;;;;;;;46.83;16.55;;;3.10;99.90;;;;;;4999012;28;20049;-74
2022/11/23 01:21:35;;;;;;;49.80;15.15;;;3.10;99.90;;;;;;4999124;28;20366;-74
2022/11/23 01:24:06;;;;;;;50.65;16.52;;;3.10;99.90;;;;;;4997702;28;20046;-74
2022/11/23 01:26:38;;;;;;;41.33;14.85;;;3.00;99.90;;;;;;5015827;28;20054;-74
2022/11/23 01:29:06;;;;;;;50.60;14.15;;;3.00;99.90;;;;;;4998068;28;20473;-74
2022/11/23 01:31:34;;;;;;;49.00;15.07;;;3.00;99.90;;;;;;4999037;28;20042;-74
2022/11/23 01:34:03;;;;;;;49.53;15.07;;;3.70;99.90;;;;;;5015930;28;20050;-74
2022/11/23 01:36:33;;;;;;;49.22;13.52;;;5.20;99.90;;;;;;5007098;28;20058;-74
2022/11/23 01:39:02;;;;;;;44.00;13.52;;;3.00;99.90;;;;;;5034400;28;20045;-73
2022/11/23 01:41:33;;;;;;;46.55;13.10;;;3.00;99.90;;;;;;5035333;28;20045;-74
2022/11/23 01:44:28;;;;;;;45.22;13.68;;;3.00;99.90;;;;;;5017316;28;20464;-74
2022/11/23 01:47:00;;;;;;;43.33;13.73;;;3.00;99.90;;;;;;5034504;28;20045;-74
2022/11/23 01:49:34;;;;;;;41.33;13.10;;;4.30;99.90;;;;;;5033448;28;20053;-74
2022/11/23 01:52:16;;;;;;;34.85;11.82;;;3.20;99.90;;;;;;5034706;28;20468;-74
2022/11/23 01:54:49;;;;;;;41.85;12.35;;;3.20;99.90;;;;;;5035421;28;20049;-74
2022/11/23 01:57:30;;;;;;;38.80;10.30;;;3.20;99.90;;;;;;5034122;28;20469;-74
2022/11/23 02:00:00;;;;;;;34.78;10.98;;;3.20;99.90;;;;;;5035041;28;20499;-74
2022/11/23 02:02:48;;;;;;;28.83;9.73;;;3.40;99.90;;;;;;5033166;28;20483;-74
2022/11/23 02:05:18;;;;;;;28.83;9.75;;;3.40;99.90;;;;;;5034967;28;20050;-74
2022/11/23 02:07:48;;;;;;;38.67;10.73;;;3.40;99.90;;;;;;5035119;28;20059;-74
2022/11/23 02:10:17;;;;;;;34.20;11.88;;;3.40;99.90;;;;;;5033817;28;20049;-74
2022/11/23 02:12:44;;;;;;;43.42;12.02;;;4.80;99.90;;;;;;5034044;28;20491;-74
2022/11/23 02:15:12;;;;;;;40.83;13.23;;;3.50;99.90;;;;;;5035037;28;20052;-74
2022/11/23 02:17:42;;;;;;;52.78;14.48;;;3.60;99.90;;;;;;5033896;28;20384;-73
2022/11/23 02:20:13;;;;;;;29.48;11.60;;;3.70;99.90;;;;;;5017501;28;20487;-74
2022/11/23 02:23:02;;;;;;;39.42;11.32;;;3.70;99.90;;;;;;5032711;28;20718;-74
2022/11/23 02:25:45;;;;;;;32.47;11.23;;;3.80;99.90;;;;;;5033862;28;20041;-74
2022/11/23 02:28:20;;;;;;;34.40;11.13;;;3.80;99.90;;;;;;5033909;28;20060;-74
2022/11/23 02:30:50;;;;;;;38.55;11.43;;;3.80;99.90;;;;;;5032759;28;20041;-74
2022/11/23 02:33:21;;;;;;;45.08;11.77;;;3.80;99.90;;;;;;5033846;28;20049;-74
2022/11/23 02:35:54;;;;;;;39.50;11.50;;;3.90;99.90;;;;;;5032200;28;20364;-74
2022/11/23 02:38:25;;;;;;;29.95;10.43;;;3.90;99.90;;;;;;4998036;28;20049;-73
2022/11/23 02:40:53;;;;;;;31.17;10.27;;;4.00;99.90;;;;;;4981806;28;20500;-74
2022/11/23 02:43:22;;;;;;;30.42;9.38;;;4.20;99.90;;;;;;4996589;28;20037;-74
2022/11/23 02:46:03;;;;;;;28.33;9.57;;;3.90;99.90;;;;;;4998229;28;20354;-74
2022/11/23 02:48:30;;;;;;;33.90;10.05;;;3.90;99.90;;;;;;4967064;28;20064;-74
2022/11/23 02:50:58;;;;;;;28.33;9.35;;;3.80;99.90;;;;;;5000662;28;20484;-74
2022/11/23 02:53:25;;;;;;;38.67;9.38;;;4.80;99.90;;;;;;5001858;28;20053;-74
2022/11/23 02:55:54;;;;;;;35.47;9.00;;;3.70;99.90;;;;;;5000526;28;20473;-74
2022/11/23 02:58:23;;;;;;;26.75;9.00;;;3.70;99.90;;;;;;5018507;28;20045;-74
2022/11/23 03:00:51;;;;;;;27.52;9.00;;;3.60;99.90;;;;;;5018628;28;20046;-73
2022/11/23 03:03:19;;;;;;;31.02;9.95;;;3.60;99.90;;;;;;5000238;28;20053;-73
2022/11/23 03:05:46;;;;;;;29.50;9.93;;;3.60;99.90;;;;;;5001419;28;20489;-74
2022/11/23 03:08:14;;;;;;;31.38;9.48;;;3.60;99.90;;;;;;5001250;28;20057;-73
2022/11/23 03:10:42;;;;;;;34.70;9.88;;;3.50;99.90;;;;;;5017232;28;20072;-74
2022/11/23 03:13:10;;;;;;;27.48;9.20;;;4.40;99.90;;;;;;5001134;28;20052;-74
2022/11/23 03:15:39;;;;;;;33.05;10.10;;;3.40;99.90;;;;;;5001334;28;20052;-73
2022/11/23 03:18:08;;;;;;;32.95;10.32;;;3.40;99.90;;;;;;5001282;28;20046;-74
2022/11/23 03:20:38;;;;;;;28.90;9.82;;;4.50;99.90;;;;;;5001385;28;20046;-74
2022/11/23 03:23:05;;;;;;;34.97;10.07;;;3.40;99.90;;;;;;5000005;28;20054;-74
2022/11/23 03:25:33;;;;;;;33.70;9.48;;;3.30;99.90;;;;;;5001228;28;20046;-73
2022/11/23 03:28:01;;;;;;;34.55;9.07;;;3.40;99.90;;;;;;5000967;28;20050;-74
2022/11/23 03:30:30;;;;;;;30.83;8.57;;;3.30;99.90;;;;;;4999951;28;20412;-74
2022/11/23 03:32:58;;;;;;;37.13;8.77;;;3.30;99.90;;;;;;5000776;28;20045;-74
2022/11/23 03:35:25;;;;;;;35.55;9.35;;;3.80;99.90;;;;;;5000911;28;20034;-73
2022/11/23 03:38:12;;;;;;;28.83;7.90;;;3.20;99.90;;;;;;5018333;28;20042;-73
2022/11/23 03:40:39;;;;;;;36.85;8.23;;;3.20;99.90;;;;;;5000823;28;20041;-74
2022/11/23 03:43:33;;;;;;;29.33;7.82;;;3.10;99.90;;;;;;5014672;28;20061;-73
2022/11/23 03:46:00;;;;;;;27.73;7.22;;;3.10;99.90;;;;;;5000531;28;20050;-73
2022/11/23 03:48:28;;;;;;;28.15;7.65;;;3.10;99.90;;;;;;4984976;28;20057;-74
2022/11/23 03:50:55;;;;;;;29.52;8.02;;;3.00;99.90;;;;;;4999449;28;20046;-74
2022/11/23 03:53:23;;;;;;;27.23;7.57;;;3.00;99.90;;;;;;5000726;28;20376;-74
2022/11/23 03:55:53;;;;;;;29.65;7.10;;;3.00;99.90;;;;;;4999553;28;20065;-74
2022/11/23 03:58:23;;;;;;;23.13;7.20;;;3.00;99.90;;;;;;5017618;28;20054;-73
2022/11/23 04:00:51;;;;;;;25.10;6.70;;;2.90;99.90;;;;;;4999983;28;20041;-73
2022/11/23 04:03:19;;;;;;;23.65;7.70;;;2.90;99.90;;;;;;4999157;28;20046;-73
2022/11/23 04:06:21;;;;;;;23.50;6.15;;;2.90;99.90;;;;;;5012505;28;20053;-73
2022/11/23 04:09:08;;;;;;;30.92;6.75;;;2.80;99.90;;;;;;4999020;28;20042;-73
2022/11/23 04:12:08;;;;;;;27.75;6.10;;;2.80;99.90;;;;;;5005650;28;20061;-73
2022/11/23 04:14:38;;;;;;;31.63;6.72;;;2.80;99.90;;;;;;5000164;28;20042;-74
2022/11/23 04:17:05;;;;;;;27.95;6.53;;;2.70;99.90;;;;;;4999143;28;20042;-74
2022/11/23 04:19:33;;;;;;;23.95;6.45;;;4.70;99.90;;;;;;4999952;28;20050;-74
2022/11/23 04:22:01;;;;;;;37.00;7.30;;;4.30;99.90;;;;;;4999894;28;20053;-73
2022/11/23 04:24:34;;;;;;;21.45;7.00;;;2.70;99.90;;;;;;4982694;28;20069;-73
2022/11/23 04:27:04;;;;;;;34.85;7.85;;;2.70;99.90;;;;;;4983954;28;20388;-73
2022/11/23 04:29:32;;;;;;;32.55;8.48;;;4.50;99.90;;;;;;4998901;28;20377;-73
2022/11/23 04:32:00;;;;;;;29.08;7.65;;;4.70;99.90;;;;;;4983432;28;20065;-73
2022/11/23 04:34:28;;;;;;;36.25;9.10;;;3.00;99.90;;;;;;4999650;28;20046;-73
2022/11/23 04:36:55;;;;;;;36.55;8.95;;;3.40;99.90;;;;;;5015220;28;20055;-74
2022/11/23 04:39:31;;;;;;;30.70;7.68;;;3.20;99.90;;;;;;5035821;28;20045;-73
2022/11/23 04:42:17;;;;;;;37.28;7.68;;;3.30;99.90;;;;;;5035842;28;20042;-74
2022/11/23 04:44:52;;;;;;;30.85;7.25;;;3.40;99.90;;;;;;5035803;28;20048;-73
2022/11/23 04:47:20;;;;;;;24.95;6.82;;;3.40;99.90;;;;;;5035926;28;20045;-74
2022/11/23 04:49:48;;;;;;;32.10;6.78;;;3.40;99.90;;;;;;5035632;28;20052;-73
2022/11/23 04:52:18;;;;;;;23.88;7.07;;;3.30;99.90;;;;;;5019257;28;20060;-73
2022/11/23 04:54:47;;;;;;;32.30;7.57;;;3.30;99.90;;;;;;5035507;28;20049;-73
2022/11/23 04:57:15;;;;;;;27.63;6.95;;;3.20;99.90;;;;;;5017902;28;20384;-74
2022/11/23 04:59:44;;;;;;;38.67;8.55;;;3.20;99.90;;;;;;5019155;28;20037;-73
2022/11/23 05:02:12;;;;;;;33.80;8.32;;;3.50;99.90;;;;;;5036196;28;20053;-73
2022/11/23 05:04:46;;;;;;;29.90;8.02;;;3.70;99.90;;;;;;5035173;28;20045;-73
2022/11/23 05:07:16;;;;;;;30.80;7.47;;;3.20;99.90;;;;;;5035347;28;20040;-73
2022/11/23 05:09:49;;;;;;;25.98;7.05;;;3.20;99.90;;;;;;5034119;28;20109;-73
2022/11/23 05:12:20;;;;;;;43.13;7.65;;;3.20;99.90;;;;;;5034675;28;20071;-74
2022/11/23 05:14:47;;;;;;;36.20;7.32;;;3.20;99.90;;;;;;5036247;28;20052;-74
2022/11/23 05:17:20;;;;;;;26.63;6.68;;;3.20;99.90;;;;;;5034138;28;20349;-73
2022/11/23 05:19:50;;;;;;;30.85;6.78;;;3.20;99.90;;;;;;5035131;28;20460;-74
2022/11/23 05:22:21;;;;;;;30.33;6.93;;;3.30;99.90;;;;;;5018257;28;20409;-73
2022/11/23 05:24:48;;;;;;;34.83;7.13;;;3.30;99.90;;;;;;5034857;28;20041;-73
2022/11/23 05:27:20;;;;;;;33.28;6.70;;;3.30;99.90;;;;;;5018637;28;20041;-73
2022/11/23 05:29:48;;;;;;;36.00;6.45;;;3.40;99.90;;;;;;5017368;28;20053;-73
2022/11/23 05:32:15;;;;;;;38.75;5.95;;;3.50;99.90;;;;;;5034582;28;20475;-73
2022/11/23 05:34:43;;;;;;;33.75;6.35;;;3.50;99.90;;;;;;5035520;28;20049;-74
2022/11/23 05:37:13;;;;;;;28.05;5.57;;;3.60;99.90;;;;;;5033460;28;20054;-73
2022/11/23 05:39:50;;;;;;;39.10;5.32;;;3.70;99.90;;;;;;5034853;28;20045;-73
2022/11/23 05:42:18;;;;;;;34.03;5.22;;;3.80;99.90;;;;;;5034659;28;20361;-74
2022/11/23 05:44:47;;;;;;;34.50;5.35;;;5.40;99.90;;;;;;5034203;28;20052;-73
2022/11/23 05:47:20;;;;;;;37.30;5.47;;;4.00;99.90;;;;;;5018582;28;20061;-73
2022/11/23 05:49:49;;;;;;;42.20;5.35;;;4.20;99.90;;;;;;5034149;28;20480;-74
2022/11/23 05:52:20;;;;;;;30.70;4.55;;;4.30;99.90;;;;;;5034706;28;20053;-73
2022/11/23 05:54:48;;;;;;;41.97;4.80;;;4.60;99.90;;;;;;5018064;28;20072;-73
2022/11/23 05:57:16;;;;;;;51.95;5.50;;;5.00;99.90;;;;;;5033085;28;20049;-73
2022/11/23 05:59:45;;;;;;;30.20;4.28;;;6.10;99.90;;;;;;5034193;28;20057;-73
2022/11/23 06:02:22;;;;;;;40.28;4.28;;;4.90;99.90;;;;;;5018511;28;20053;-73
2022/11/23 06:04:54;;;;;;;41.03;4.22;;;5.00;99.90;;;;;;5018693;28;20050;-73
2022/11/23 06:07:32;;;;;;;27.50;4.18;;;5.10;99.90;;;;;;5034382;28;20045;-74
2022/11/23 06:10:07;;;;;;;44.85;4.60;;;5.20;99.90;;;;;;5032990;28;20064;-73
2022/11/23 06:12:39;;;;;;;39.83;4.25;;;5.30;99.90;;;;;;5018762;28;20046;-73
2022/11/23 06:15:11;;;;;;;45.75;4.25;;;5.40;99.90;;;;;;5034164;28;20053;-73
2022/11/23 06:17:39;;;;;;;51.67;4.43;;;5.40;99.90;;;;;;5016736;28;20050;-74
2022/11/23 06:20:11;;;;;;;35.40;3.88;;;5.50;99.90;;;;;;5034091;28;20037;-73
2022/11/23 06:22:43;;;;;;;41.53;4.40;;;5.60;99.90;;;;;;5017118;28;20041;-73
2022/11/23 06:25:15;;;;;;;43.92;4.03;;;5.70;99.90;;;;;;5017756;28;20041;-73
2022/11/23 06:27:59;;;;;;;45.10;3.75;;;5.80;99.90;;;;;;5033842;28;20041;-73
2022/11/23 06:30:34;;;;;;;34.70;3.60;;;5.90;99.90;;;;;;5032617;28;20041;-74
2022/11/23 06:33:06;;;;;;;43.17;3.83;;;5.90;99.90;;;;;;5033702;28;20049;-74
2022/11/23 06:35:40;;;;;;;41.05;3.65;;;7.30;99.90;;;;;;5017353;28;20045;-74
2022/11/23 06:38:07;;;;;;;39.22;4.13;;;6.00;99.90;;;;;;5014640;28;20062;-74
2022/11/23 06:40:35;;;;;;;37.10;3.75;;;6.10;99.90;;;;;;5014829;28;20380;-74
2022/11/23 06:43:03;;;;;;;35.63;3.83;;;6.40;99.90;;;;;;5013829;28;20053;-74
2022/11/23 06:45:39;;;;;;;38.30;4.28;;;6.20;99.90;;;;;;5015191;28;20484;-74
2022/11/23 06:48:11;;;;;;;41.05;3.78;;;6.20;99.90;;;;;;4997978;28;20041;-74
2022/11/23 06:50:43;;;;;;;38.83;4.30;;;6.30;99.90;;;;;;4996766;28;20056;-74
2022/11/23 06:53:11;;;;;;;54.08;4.47;;;6.40;99.90;;;;;;4986383;28;20057;-74
2022/11/23 06:55:48;;;;;;;37.20;3.67;;;7.10;99.90;;;;;;4996111;28;20057;-74
2022/11/23 06:58:18;;;;;;;34.85;3.70;;;6.70;99.90;;;;;;4997484;28;20042;-74
2022/11/23 07:00:45;;;;;;;40.25;3.70;;;8.80;99.90;;;;;;5015099;28;20042;-74
2022/11/23 07:03:20;;;;;;;38.25;4.32;;;6.80;99.90;;;;;;4996389;28;20046;-74
2022/11/23 07:05:50;;;;;;;36.17;4.18;;;7.00;99.90;;;;;;5014098;28;20045;-74
2022/11/23 07:08:20;;;;;;;33.70;3.67;;;7.30;99.90;;;;;;5013611;28;20045;-74
2022/11/23 07:10:48;;;;;;;36.80;4.18;;;7.00;99.90;;;;;;4995851;28;20069;-74
2022/11/23 07:13:16;;;;;;;35.42;4.28;;;7.10;99.90;;;;;;4997374;28;20042;-74
2022/11/23 07:15:45;;;;;;;42.97;4.38;;;7.40;99.90;;;;;;4996348;28;20057;-74
2022/11/23 07:18:13;;;;;;;38.42;4.22;;;9.10;99.90;;;;;;4997548;28;20479;-74
2022/11/23 07:20:47;;;;;;;31.48;4.38;;;7.10;99.90;;;;;;4997258;28;20038;-74
2022/11/23 07:23:14;;;;;;;43.95;4.80;;;9.50;99.90;;;;;;4996112;28;20050;-74
2022/11/23 07:25:42;;;;;;;40.72;4.75;;;7.20;99.90;;;;;;4997584;28;20053;-74
2022/11/23 07:28:15;;;;;;;32.35;4.20;;;7.30;99.90;;;;;;4981671;28;20046;-74
2022/11/23 07:30:43;;;;;;;30.77;4.60;;;7.80;99.90;;;;;;5013393;28;20050;-74
2022/11/23 07:33:11;;;;;;;31.48;4.50;;;9.30;99.90;;;;;;5013647;28;20049;-74
2022/11/23 07:35:40;;;;;;;28.77;5.13;;;9.60;99.90;;;;;;5016506;28;20050;-74
2022/11/23 07:38:08;;;;;;;41.10;5.53;;;6.20;99.90;;;;;;5003913;28;20045;-74
2022/11/23 07:40:37;;;;;;;33.30;5.30;;;7.80;99.90;;;;;;5036902;28;20049;-74
2022/11/23 07:43:11;;;;;;;36.22;5.03;;;8.30;99.90;;;;;;5035799;28;20049;-78
2022/11/23 07:45:38;;;;;;;35.80;5.07;;;7.90;99.90;;;;;;5036889;28;20574;-75
2022/11/23 07:48:09;;;;;;;29.95;4.50;;;8.00;99.90;;;;;;5039074;28;20049;-74
2022/11/23 07:50:38;;;;;;;31.77;5.13;;;8.10;99.90;;;;;;5039081;28;20045;-74
2022/11/23 07:53:07;;;;;;;25.58;4.20;;;8.20;99.90;;;;;;5039636;28;20048;-73
2022/11/23 07:55:34;;;;;;;24.42;3.88;;;9.60;99.90;;;;;;5057210;28;20049;-74
2022/11/23 07:58:02;;;;;;;19.63;3.75;;;9.30;99.90;;;;;;5038457;28;20037;-74
2022/11/23 08:00:32;;;;;;;17.30;3.45;;;8.40;99.90;;;;;;5057140;28;20052;-73
2022/11/23 08:03:00;;;;;;;11.93;2.60;;;7.20;99.90;;;;;;5038483;28;20056;-73
2022/11/23 08:05:47;;;;;;;26.20;3.25;;;9.40;99.90;;;;;;5056930;28;20041;-73
2022/11/23 08:08:15;;;;;;;20.30;3.03;;;9.30;99.90;;;;;;5056862;28;20049;-73
2022/11/23 08:10:42;;;;;;;21.40;2.90;;;8.60;99.90;;;;;;5055951;28;20052;-73
2022/11/23 08:13:18;;;;;;;11.25;1.80;;;8.60;99.90;;;;;;5056549;28;20049;-74
2022/11/23 08:15:46;;;;;;;11.27;1.90;;;8.70;99.90;;;;;;5056010;28;20045;-74
2022/11/23 08:18:24;;;;;;;11.20;1.77;;;9.40;99.90;;;;;;5056772;28;20048;-74
2022/11/23 08:20:52;;;;;;;10.23;1.40;;;8.80;99.90;;;;;;5039357;28;20045;-73
2022/11/23 08:23:20;;;;;;;9.35;1.70;;;8.90;99.90;;;;;;5055671;28;20040;-73
2022/11/23 08:25:47;;;;;;;8.60;1.52;;;8.90;99.90;;;;;;5050464;28;20152;-73
2022/11/23 08:28:15;;;;;;;7.88;1.58;;;9.70;99.90;;;;;;5047318;28;20477;-73
2022/11/23 08:30:43;;;;;;;6.03;1.25;;;9.00;99.90;;;;;;5044109;28;20071;-73
2022/11/23 08:33:11;;;;;;;9.45;1.50;;;9.00;99.90;;;;;;5046416;28;20471;-73
2022/11/23 08:35:41;;;;;;;9.82;1.77;;;10.30;99.90;;;;;;5021421;28;20445;-74
2022/11/23 08:38:12;;;;;;;10.68;1.40;;;8.30;99.90;;;;;;5024491;28;20045;-78
2022/11/23 08:40:40;;;;;;;8.30;1.45;;;10.80;99.90;;;;;;5020908;28;20048;-78
2022/11/23 08:43:10;;;;;;;10.45;1.92;;;10.10;99.90;;;;;;5032748;28;20052;-77
2022/11/23 08:45:37;;;;;;;9.45;1.90;;;9.20;99.90;;;;;;5036997;28;20048;-78
2022/11/23 08:48:08;;;;;;;9.73;1.90;;;9.20;99.90;;;;;;4989237;28;20053;-78
2022/11/23 08:50:38;;;;;;;9.63;2.17;;;9.80;99.90;;;;;;5015923;28;20050;-75
2022/11/23 08:53:06;;;;;;;6.03;2.10;;;9.30;99.90;;;;;;5016972;28;20054;-75
2022/11/23 08:55:33;;;;;;;9.75;1.98;;;9.40;99.90;;;;;;5017361;28;20050;-75
2022/11/23 08:58:01;;;;;;;9.00;2.13;;;9.70;99.90;;;;;;5022422;28;20038;-75
2022/11/23 09:00:28;;;;;;;8.68;2.65;;;10.40;99.90;;;;;;5015917;28;20049;-75
2022/11/23 09:02:57;;;;;;;6.72;2.08;;;9.40;99.90;;;;;;5017968;28;20049;-75
2022/11/23 09:05:27;;;;;;;6.78;2.15;;;9.40;99.90;;;;;;5036687;28;20045;-75
2022/11/23 09:07:55;;;;;;;11.23;2.35;;;10.80;99.90;;;;;;5036705;28;20064;-75
2022/11/23 09:10:22;;;;;;;;;;;9.50;99.90;;;;;;5018148;28;20502;-75
2022/11/23 09:12:51;;;;;;;5.93;2.00;;;9.50;99.90;;;;;;5036224;28;19928;-75
2022/11/23 09:15:18;;;;;;;8.27;2.70;;;9.50;99.90;;;;;;5003128;28;20053;-75
2022/11/23 09:17:46;;;;;;;11.50;2.53;;;9.50;99.90;;;;;;5035099;28;20337;-75
2022/11/23 09:20:14;;;;;;;7.28;2.53;;;10.70;99.90;;;;;;5008416;28;20484;-74
2022/11/23 09:22:42;;;;;;;5.80;2.42;;;9.50;99.90;;;;;;5015256;28;20049;-76
2022/11/23 09:25:10;;;;;;;4.53;2.28;;;9.50;99.90;;;;;;5016284;28;20048;-75
2022/11/23 09:27:37;;;;;;;7.65;2.28;;;9.50;99.90;;;;;;5016528;28;20389;-75
2022/11/23 09:30:05;;;;;;;6.88;2.50;;;9.60;99.90;;;;;;5014953;28;20469;-76
2022/11/23 09:32:33;;;;;;;3.83;1.30;;;9.60;99.90;;;;;;5015778;28;20046;-77
2022/11/23 09:35:01;;;;;;;2.88;1.20;;;9.60;99.90;;;;;;5015526;28;20057;-75
2022/11/23 09:37:28;;;;;;;7.25;1.10;;;9.60;99.90;;;;;;5006713;28;20056;-76
2022/11/23 09:39:56;;;;;;;15.93;1.63;;;10.00;99.90;;;;;;5035563;28;20365;-76
2022/11/23 09:42:35;;;;;;;8.70;1.60;;;10.90;99.90;;;;;;5033879;28;20067;-76
2022/11/23 09:45:22;;;;;;;13.57;1.67;;;9.80;99.90;;;;;;5035733;28;20045;-77
2022/11/23 09:47:55;;;;;;;16.33;1.83;;;9.90;99.90;;;;;;5034797;28;20060;-74
2022/11/23 09:50:33;;;;;;;16.05;1.77;;;10.00;99.90;;;;;;5033921;28;20045;-74
2022/11/23 09:53:11;;;;;;;13.35;1.70;;;10.10;99.90;;;;;;5035317;28;20053;-75
2022/11/23 09:55:48;;;;;;;18.90;1.63;;;10.10;99.90;;;;;;5035494;28;20060;-75
2022/11/23 09:58:19;;;;;;;12.48;1.42;;;10.10;99.90;;;;;;5035162;28;20334;-74
2022/11/23 10:00:58;;;;;;;11.68;1.50;;;11.20;99.90;;;;;;5035069;28;20050;-74
2022/11/23 10:03:27;;;;;;;13.38;1.30;;;10.20;99.90;;;;;;5033225;28;20367;-74
2022/11/23 10:06:20;;;;;;;19.70;1.58;;;10.20;99.90;;;;;;5035260;28;20053;-74
2022/11/23 10:09:11;;;;;;;17.92;1.70;;;10.20;99.90;;;;;;5034875;28;20388;-75
2022/11/23 10:12:11;;;;;;;19.50;1.80;;;10.20;99.90;;;;;;5033786;28;20052;-74
2022/11/23 10:15:04;;;;;;;11.82;1.55;;;10.20;99.90;;;;;;5035097;28;20049;-73
2022/11/23 10:18:00;;;;;;;18.88;2.03;;;10.20;99.90;;;;;;5033678;28;20464;-74
2022/11/23 10:20:45;;;;;;;21.45;1.63;;;10.20;99.90;;;;;;5035077;28;20044;-75
2022/11/23 10:23:17;;;;;;;18.02;1.52;;;10.10;99.90;;;;;;5033721;28;20046;-75
2022/11/23 10:25:49;;;;;;;14.93;1.88;;;10.10;99.90;;;;;;5034838;28;20056;-75
2022/11/23 10:28:21;;;;;;;19.42;1.90;;;10.10;99.90;;;;;;5034850;28;20491;-75
2022/11/23 10:30:55;;;;;;;13.07;1.60;;;10.30;99.90;;;;;;5032803;28;20053;-74
2022/11/23 10:33:38;;;;;;;16.00;1.85;;;10.10;99.90;;;;;;5035108;28;20045;-75
2022/11/23 10:36:09;;;;;;;18.38;2.15;;;10.10;99.90;;;;;;5030279;28;20050;-74
2022/11/23 10:38:37;;;;;;;18.77;1.73;;;10.10;99.90;;;;;;5014705;28;20045;-74
2022/11/23 10:41:10;;;;;;;17.52;1.75;;;10.20;99.90;;;;;;4998049;28;20110;-75
2022/11/23 10:44:03;;;;;;;22.90;1.83;;;10.60;99.90;;;;;;5014107;28;20057;-74
2022/11/23 10:46:33;;;;;;;27.35;1.80;;;10.20;99.90;;;;;;4987106;28;20065;-75
2022/11/23 10:49:18;;;;;;;19.00;1.80;;;10.20;99.90;;;;;;5014461;28;20053;-75
2022/11/23 10:52:02;;;;;;;18.42;1.50;;;10.10;99.90;;;;;;5015256;28;20049;-75
2022/11/23 10:54:40;;;;;;;10.50;1.05;;;10.10;99.90;;;;;;4997775;28;20065;-74
2022/11/23 10:57:26;;;;;;;15.15;1.70;;;10.10;99.90;;;;;;5013669;28;20060;-74
2022/11/23 11:00:04;;;;;;;17.85;2.20;;;10.10;99.90;;;;;;5014716;28;20061;-74
2022/11/23 11:02:44;;;;;;;15.10;1.75;;;10.20;99.90;;;;;;4996836;28;20057;-76
2022/11/23 11:05:35;;;;;;;14.48;1.58;;;10.10;99.90;;;;;;5014845;28;20046;-75
2022/11/23 11:08:30;;;;;;;15.13;1.60;;;10.10;99.90;;;;;;4997204;28;20045;-74
2022/11/23 11:11:07;;;;;;;11.60;1.55;;;10.10;99.90;;;;;;5000004;28;20056;-74
2022/11/23 11:13:47;;;;;;;16.85;1.98;;;10.00;99.90;;;;;;5018528;28;20049;-75
2022/11/23 11:16:25;;;;;;;18.50;1.90;;;10.00;99.90;;;;;;5017172;28;20053;-74
2022/11/23 11:18:53;;;;;;;19.30;2.00;;;10.00;99.90;;;;;;5018438;28;20361;-75
2022/11/23 11:21:20;;;;;;;18.35;2.03;;;10.00;99.90;;;;;;5018147;28;20053;-74
2022/11/23 11:24:19;;;;;;;17.40;2.00;;;10.00;99.90;;;;;;5000085;28;20041;-73
2022/11/23 11:27:14;;;;;;;20.60;1.95;;;10.10;99.90;;;;;;5001447;28;20038;-75
2022/11/23 11:29:45;;;;;;;20.30;1.85;;;10.20;99.90;;;;;;5010143;28;20056;-74
2022/11/23 11:32:31;;;;;;;23.85;1.80;;;10.10;99.90;;;;;;5018375;28;20046;-75
2022/11/23 11:35:29;;;;;;;13.95;1.65;;;10.10;99.90;;;;;;5001092;28;20042;-74
2022/11/23 11:38:08;;;;;;;18.73;2.40;;;10.10;99.90;;;;;;5033129;28;20052;-75
2022/11/23 11:40:50;;;;;;;16.20;2.75;;;10.20;99.90;;;;;;5037930;28;20056;-75
2022/11/23 11:43:23;;;;;;;22.75;2.20;;;10.30;99.90;;;;;;5036493;28;20049;-74
2022/11/23 11:46:08;;;;;;;16.83;2.15;;;10.20;99.90;;;;;;5037910;28;20045;-75
2022/11/23 11:49:17;;;;;;;15.10;2.08;;;10.10;99.90;;;;;;5036720;28;20388;-74
2022/11/23 11:51:50;;;;;;;22.95;2.85;;;10.00;99.90;;;;;;5037900;28;20049;-74
2022/11/23 11:54:41;;;;;;;21.73;2.45;;;10.00;99.90;;;;;;5037514;28;20045;-73
2022/11/23 11:57:27;;;;;;;19.90;3.10;;;10.80;99.90;;;;;;5036420;28;20099;-75
2022/11/23 11:59:56;;;;;;;30.27;2.85;;;10.00;99.90;;;;;;5037210;28;20046;-75
2022/11/23 12:02:41;;;;;;;20.27;2.50;;;10.10;99.90;;;;;;5018911;28;20364;-74
2022/11/23 12:05:28;;;;;;;24.67;2.55;;;10.00;99.90;;;;;;5037572;28;20041;-74
2022/11/23 12:08:24;;;;;;;25.38;2.70;;;10.00;99.90;;;;;;5037175;28;20047;-75
2022/11/23 12:11:01;;;;;;;25.65;2.75;;;10.00;99.90;;;;;;5031661;28;20423;-75
2022/11/23 12:13:37;;;;;;;20.45;2.75;;;10.00;99.90;;;;;;5036628;28;20046;-74
2022/11/23 12:16:18;;;;;;;26.83;3.05;;;10.00;99.90;;;;;;5036104;28;20050;-74
2022/11/23 12:19:04;;;;;;;29.05;3.05;;;10.10;99.90;;;;;;5037077;28;20052;-75
2022/11/23 12:21:51;;;;;;;29.73;3.28;;;10.10;99.90;;;;;;5036902;28;20045;-75
2022/11/23 12:24:47;;;;;;;25.90;3.33;;;10.20;99.90;;;;;;5034160;28;20041;-76
2022/11/23 12:27:58;;;;;;;20.08;2.97;;;10.10;99.90;;;;;;5036470;28;20042;-75
2022/11/23 12:31:01;;;;;;;23.60;3.25;;;10.20;99.90;;;;;;5034728;28;20376;-74
2022/11/23 12:33:51;;;;;;;33.53;3.97;;;10.20;99.90;;;;;;5036536;28;20042;-73
2022/11/23 12:36:32;;;;;;;30.00;3.22;;;10.20;99.90;;;;;;5031919;28;20350;-74
2022/11/23 12:39:56;;;;;;;29.23;3.80;;;10.20;99.90;;;;;;5016323;28;20052;-74
2022/11/23 12:42:37;;;;;;;26.45;3.42;;;10.20;99.90;;;;;;4955432;29;20058;-76
2022/11/23 12:45:18;;;;;;;28.92;3.80;;;10.80;99.90;;;;;;4956538;29;20505;-70
2022/11/23 12:47:48;;;;;;;39.28;3.95;;;10.30;99.90;;;;;;4996206;28;20049;-73
2022/11/23 12:50:22;;;;;;;26.60;3.95;;;10.20;99.90;;;;;;5015316;28;20054;-74
2022/11/23 12:53:02;;;;;;;32.47;4.03;;;10.20;99.90;;;;;;5016303;28;20487;-73
2022/11/23 12:55:49;;;;;;;27.55;3.75;;;10.20;99.90;;;;;;5016312;28;20392;-73
2022/11/23 12:58:26;;;;;;;31.13;3.90;;;10.20;99.90;;;;;;5016087;28;20058;-74
2022/11/23 13:01:19;;;;;;;34.28;4.88;;;10.20;99.90;;;;;;5016258;28;20042;-74
2022/11/23 13:04:16;;;;;;;19.85;3.40;;;10.30;99.90;;;;;;4998264;28;20054;-74
2022/11/23 13:06:58;;;;;;;20.60;3.15;;;11.60;99.90;;;;;;4999057;28;20369;-74
2022/11/23 13:10:26;;;;;;;29.23;3.65;;;10.30;99.90;;;;;;5014960;28;20046;-73
2022/11/23 13:13:15;;;;;;;19.42;3.13;;;10.30;99.90;;;;;;4983570;28;20060;-73
2022/11/23 13:16:17;;;;;;;24.83;3.65;;;12.30;99.90;;;;;;5014798;28;20508;-73
2022/11/23 13:18:59;;;;;;;25.05;3.35;;;10.40;99.90;;;;;;4997531;28;20062;-73